sensor_id;sensor_type;location;lat;lon;timestamp;temperature;humidity
33994;DHT22;20673;48.980;8.138;2023-08-31T00:01:11;14.30;99.90
33994;DHT22;20673;48.980;8.138;2023-08-31T00:03:37;14.30;99.90
33994;DHT22;20673;48.980;8.138;2023-08-31T00:06:04;14.30;99.90
33994;DHT22;20673;48.980;8.138;2023-08-31T00:08:32;14.30;99.90
33994;DHT22;20673;48.980;8.138;2023-08-31T00:10:59;14.30;99.90
33994;DHT22;20673;48.980;8.138;2023-08-31T00:13:27;14.30;99.90
33994;DHT22;20673;48.980;8.138;2023-08-31T00:15:55;14.30;99.90
33994;DHT22;20673;48.980;8.138;2023-08-31T00:18:23;14.30;99.90
33994;DHT22;20673;48.980;8.138;2023-08-31T00:20:52;14.40;99.90
33994;DHT22;20673;48.980;8.138;2023-08-31T00:23:18;14.40;99.90
33994;DHT22;20673;48.980;8.138;2023-08-31T00:25:45;14.40;99.90
33994;DHT22;20673;48.980;8.138;2023-08-31T00:28:14;14.40;99.90
33994;DHT22;20673;48.980;8.138;2023-08-31T00:30:41;14.40;99.90
33994;DHT22;20673;48.980;8.138;2023-08-31T00:33:11;14.40;99.90
33994;DHT22;20673;48.980;8.138;2023-08-31T00:35:37;14.40;99.90
33994;DHT22;20673;48.980;8.138;2023-08-31T00:38:05;14.30;99.90
33994;DHT22;20673;48.980;8.138;2023-08-31T00:40:31;14.40;99.90
33994;DHT22;20673;48.980;8.138;2023-08-31T00:42:58;14.40;99.90
33994;DHT22;20673;48.980;8.138;2023-08-31T00:45:25;14.40;99.90
33994;DHT22;20673;48.980;8.138;2023-08-31T00:47:51;14.40;99.90
33994;DHT22;20673;48.980;8.138;2023-08-31T00:50:17;14.40;99.90
33994;DHT22;20673;48.980;8.138;2023-08-31T00:52:45;14.40;99.90
33994;DHT22;20673;48.980;8.138;2023-08-31T00:55:11;14.40;99.90
33994;DHT22;20673;48.980;8.138;2023-08-31T00:57:38;14.40;99.90
33994;DHT22;20673;48.980;8.138;2023-08-31T01:00:07;14.40;99.90
33994;DHT22;20673;48.980;8.138;2023-08-31T01:02:47;14.30;99.90
33994;DHT22;20673;48.980;8.138;2023-08-31T01:05:46;14.30;99.90
33994;DHT22;20673;48.980;8.138;2023-08-31T01:14:17;14.20;99.90
33994;DHT22;20673;48.980;8.138;2023-08-31T01:16:48;14.20;99.90
33994;DHT22;20673;48.980;8.138;2023-08-31T01:19:52;14.20;99.90
33994;DHT22;20673;48.980;8.138;2023-08-31T01:22:33;14.20;99.90
33994;DHT22;20673;48.980;8.138;2023-08-31T01:25:01;14.20;99.90
33994;DHT22;20673;48.980;8.138;2023-08-31T01:27:33;14.10;99.90
33994;DHT22;20673;48.980;8.138;2023-08-31T01:29:59;14.10;99.90
33994;DHT22;20673;48.980;8.138;2023-08-31T01:32:25;14.10;99.90
33994;DHT22;20673;48.980;8.138;2023-08-31T01:34:52;14.10;99.90
33994;DHT22;20673;48.980;8.138;2023-08-31T01:37:24;14.20;99.90
33994;DHT22;20673;48.980;8.138;2023-08-31T01:40:27;14.10;99.90
33994;DHT22;20673;48.980;8.138;2023-08-31T01:42:58;14.10;99.90
33994;DHT22;20673;48.980;8.138;2023-08-31T01:45:26;14.10;99.90
33994;DHT22;20673;48.980;8.138;2023-08-31T01:47:53;14.10;99.90
33994;DHT22;20673;48.980;8.138;2023-08-31T01:50:21;14.10;99.90
33994;DHT22;20673;48.980;8.138;2023-08-31T01:52:48;14.10;99.90
33994;DHT22;20673;48.980;8.138;2023-08-31T01:55:14;14.10;99.90
33994;DHT22;20673;48.980;8.138;2023-08-31T01:57:41;14.10;99.90
33994;DHT22;20673;48.980;8.138;2023-08-31T02:00:10;14.10;99.90
33994;DHT22;20673;48.980;8.138;2023-08-31T02:02:37;14.10;99.90
33994;DHT22;20673;48.980;8.138;2023-08-31T02:05:03;14.10;99.90
33994;DHT22;20673;48.980;8.138;2023-08-31T02:07:30;14.10;99.90
33994;DHT22;20673;48.980;8.138;2023-08-31T02:09:56;14.00;99.90
33994;DHT22;20673;48.980;8.138;2023-08-31T02:12:22;14.10;99.90
33994;DHT22;20673;48.980;8.138;2023-08-31T02:14:48;14.10;99.90
33994;DHT22;20673;48.980;8.138;2023-08-31T02:17:15;14.00;99.90
33994;DHT22;20673;48.980;8.138;2023-08-31T02:19:41;14.00;99.90
33994;DHT22;20673;48.980;8.138;2023-08-31T02:22:07;14.00;99.90
33994;DHT22;20673;48.980;8.138;2023-08-31T02:24:33;14.00;99.90
33994;DHT22;20673;48.980;8.138;2023-08-31T02:26:59;14.00;99.90
33994;DHT22;20673;48.980;8.138;2023-08-31T02:29:26;14.00;99.90
33994;DHT22;20673;48.980;8.138;2023-08-31T02:31:52;14.00;99.90
33994;DHT22;20673;48.980;8.138;2023-08-31T02:34:18;14.00;99.90
33994;DHT22;20673;48.980;8.138;2023-08-31T02:36:44;14.00;99.90
33994;DHT22;20673;48.980;8.138;2023-08-31T02:39:10;14.00;99.90
33994;DHT22;20673;48.980;8.138;2023-08-31T02:41:36;14.00;99.90
33994;DHT22;20673;48.980;8.138;2023-08-31T02:44:02;14.00;99.90
33994;DHT22;20673;48.980;8.138;2023-08-31T02:46:29;14.00;99.90
33994;DHT22;20673;48.980;8.138;2023-08-31T02:48:55;14.00;99.90
33994;DHT22;20673;48.980;8.138;2023-08-31T02:51:21;14.00;99.90
33994;DHT22;20673;48.980;8.138;2023-08-31T02:53:48;14.10;99.90
33994;DHT22;20673;48.980;8.138;2023-08-31T02:56:14;14.00;99.90
33994;DHT22;20673;48.980;8.138;2023-08-31T02:58:41;14.00;99.90
33994;DHT22;20673;48.980;8.138;2023-08-31T03:01:08;14.00;99.90
33994;DHT22;20673;48.980;8.138;2023-08-31T03:03:40;13.90;99.90
33994;DHT22;20673;48.980;8.138;2023-08-31T03:06:09;13.90;99.90
33994;DHT22;20673;48.980;8.138;2023-08-31T03:08:36;13.90;99.90
33994;DHT22;20673;48.980;8.138;2023-08-31T03:11:04;13.90;99.90
33994;DHT22;20673;48.980;8.138;2023-08-31T03:13:32;13.90;99.90
33994;DHT22;20673;48.980;8.138;2023-08-31T03:15:59;13.90;99.90
33994;DHT22;20673;48.980;8.138;2023-08-31T03:18:26;13.90;99.90
33994;DHT22;20673;48.980;8.138;2023-08-31T03:20:54;13.90;99.90
33994;DHT22;20673;48.980;8.138;2023-08-31T03:23:21;13.90;99.90
33994;DHT22;20673;48.980;8.138;2023-08-31T03:25:47;13.80;99.90
33994;DHT22;20673;48.980;8.138;2023-08-31T03:28:13;13.70;99.90
33994;DHT22;20673;48.980;8.138;2023-08-31T03:30:39;13.70;99.90
33994;DHT22;20673;48.980;8.138;2023-08-31T03:33:05;13.60;99.90
33994;DHT22;20673;48.980;8.138;2023-08-31T03:35:32;13.70;99.90
33994;DHT22;20673;48.980;8.138;2023-08-31T03:37:58;13.60;99.90
33994;DHT22;20673;48.980;8.138;2023-08-31T03:40:26;13.50;99.90
33994;DHT22;20673;48.980;8.138;2023-08-31T03:42:52;13.50;99.90
33994;DHT22;20673;48.980;8.138;2023-08-31T03:45:20;13.40;99.90
33994;DHT22;20673;48.980;8.138;2023-08-31T03:47:46;13.30;99.90
33994;DHT22;20673;48.980;8.138;2023-08-31T03:50:12;13.30;99.90
33994;DHT22;20673;48.980;8.138;2023-08-31T03:52:38;13.20;99.90
33994;DHT22;20673;48.980;8.138;2023-08-31T03:55:05;13.20;99.90
33994;DHT22;20673;48.980;8.138;2023-08-31T03:57:31;13.20;99.90
33994;DHT22;20673;48.980;8.138;2023-08-31T03:59:57;13.30;99.90
33994;DHT22;20673;48.980;8.138;2023-08-31T04:02:23;13.30;99.90
33994;DHT22;20673;48.980;8.138;2023-08-31T04:04:49;13.30;99.90
33994;DHT22;20673;48.980;8.138;2023-08-31T04:07:15;13.40;99.90
33994;DHT22;20673;48.980;8.138;2023-08-31T04:09:41;13.40;99.90
33994;DHT22;20673;48.980;8.138;2023-08-31T04:12:08;13.30;99.90
33994;DHT22;20673;48.980;8.138;2023-08-31T04:14:34;13.30;99.90
33994;DHT22;20673;48.980;8.138;2023-08-31T04:17:00;13.30;99.90
33994;DHT22;20673;48.980;8.138;2023-08-31T04:19:26;13.30;99.90
33994;DHT22;20673;48.980;8.138;2023-08-31T04:21:58;13.30;99.90
33994;DHT22;20673;48.980;8.138;2023-08-31T04:24:24;13.30;99.90
33994;DHT22;20673;48.980;8.138;2023-08-31T04:26:50;13.40;99.90
33994;DHT22;20673;48.980;8.138;2023-08-31T04:29:16;13.40;99.90
33994;DHT22;20673;48.980;8.138;2023-08-31T04:31:42;13.50;99.90
33994;DHT22;20673;48.980;8.138;2023-08-31T04:34:08;13.50;99.90
33994;DHT22;20673;48.980;8.138;2023-08-31T04:36:34;13.50;99.90
33994;DHT22;20673;48.980;8.138;2023-08-31T04:39:00;13.50;99.90
33994;DHT22;20673;48.980;8.138;2023-08-31T04:41:26;13.50;99.90
33994;DHT22;20673;48.980;8.138;2023-08-31T04:43:52;13.50;99.90
33994;DHT22;20673;48.980;8.138;2023-08-31T04:46:19;13.50;99.90
33994;DHT22;20673;48.980;8.138;2023-08-31T04:48:45;13.50;99.90
33994;DHT22;20673;48.980;8.138;2023-08-31T04:51:33;13.50;99.90
33994;DHT22;20673;48.980;8.138;2023-08-31T04:54:02;13.40;99.90
33994;DHT22;20673;48.980;8.138;2023-08-31T04:56:33;13.50;99.90
33994;DHT22;20673;48.980;8.138;2023-08-31T04:59:00;13.50;99.90
33994;DHT22;20673;48.980;8.138;2023-08-31T05:01:26;13.50;99.90
33994;DHT22;20673;48.980;8.138;2023-08-31T05:03:53;13.50;99.90
33994;DHT22;20673;48.980;8.138;2023-08-31T05:06:19;13.50;99.90
33994;DHT22;20673;48.980;8.138;2023-08-31T05:08:47;13.50;99.90
33994;DHT22;20673;48.980;8.138;2023-08-31T05:11:14;13.50;99.90
33994;DHT22;20673;48.980;8.138;2023-08-31T05:13:40;13.50;99.90
33994;DHT22;20673;48.980;8.138;2023-08-31T05:16:08;13.50;99.90
33994;DHT22;20673;48.980;8.138;2023-08-31T05:18:34;13.50;99.90
33994;DHT22;20673;48.980;8.138;2023-08-31T05:21:02;13.50;99.90
33994;DHT22;20673;48.980;8.138;2023-08-31T05:23:29;13.50;99.90
33994;DHT22;20673;48.980;8.138;2023-08-31T05:25:56;13.50;99.90
33994;DHT22;20673;48.980;8.138;2023-08-31T05:28:22;13.50;99.90
33994;DHT22;20673;48.980;8.138;2023-08-31T05:30:50;13.50;99.90
33994;DHT22;20673;48.980;8.138;2023-08-31T05:33:18;13.50;99.90
33994;DHT22;20673;48.980;8.138;2023-08-31T05:35:45;13.50;99.90
33994;DHT22;20673;48.980;8.138;2023-08-31T05:38:11;13.50;99.90
33994;DHT22;20673;48.980;8.138;2023-08-31T05:40:38;13.50;99.90
33994;DHT22;20673;48.980;8.138;2023-08-31T05:43:04;13.50;99.90
33994;DHT22;20673;48.980;8.138;2023-08-31T05:45:34;13.50;99.90
33994;DHT22;20673;48.980;8.138;2023-08-31T05:48:00;13.40;99.90
33994;DHT22;20673;48.980;8.138;2023-08-31T05:50:27;13.50;99.90
33994;DHT22;20673;48.980;8.138;2023-08-31T05:52:54;13.50;99.90
33994;DHT22;20673;48.980;8.138;2023-08-31T05:55:21;13.50;99.90
33994;DHT22;20673;48.980;8.138;2023-08-31T05:57:47;13.40;99.90
33994;DHT22;20673;48.980;8.138;2023-08-31T06:00:13;13.40;99.90
33994;DHT22;20673;48.980;8.138;2023-08-31T06:02:40;13.40;99.90
33994;DHT22;20673;48.980;8.138;2023-08-31T06:05:06;13.40;99.90
33994;DHT22;20673;48.980;8.138;2023-08-31T06:07:33;13.40;99.90
33994;DHT22;20673;48.980;8.138;2023-08-31T06:09:59;13.40;99.90
33994;DHT22;20673;48.980;8.138;2023-08-31T06:12:25;13.50;99.90
33994;DHT22;20673;48.980;8.138;2023-08-31T06:14:51;13.50;99.90
33994;DHT22;20673;48.980;8.138;2023-08-31T06:17:17;13.60;99.90
33994;DHT22;20673;48.980;8.138;2023-08-31T06:19:43;13.70;99.90
33994;DHT22;20673;48.980;8.138;2023-08-31T06:22:10;13.80;99.90
33994;DHT22;20673;48.980;8.138;2023-08-31T06:24:36;13.80;99.90
33994;DHT22;20673;48.980;8.138;2023-08-31T06:27:03;13.80;99.90
33994;DHT22;20673;48.980;8.138;2023-08-31T06:29:30;13.80;99.90
33994;DHT22;20673;48.980;8.138;2023-08-31T06:31:56;13.90;99.90
33994;DHT22;20673;48.980;8.138;2023-08-31T06:34:22;14.00;99.90
33994;DHT22;20673;48.980;8.138;2023-08-31T06:36:48;14.00;99.90
33994;DHT22;20673;48.980;8.138;2023-08-31T06:39:14;14.20;99.90
33994;DHT22;20673;48.980;8.138;2023-08-31T06:41:41;14.20;99.90
33994;DHT22;20673;48.980;8.138;2023-08-31T06:44:07;14.30;99.90
33994;DHT22;20673;48.980;8.138;2023-08-31T06:46:33;14.30;99.90
33994;DHT22;20673;48.980;8.138;2023-08-31T06:49:04;14.50;99.90
33994;DHT22;20673;48.980;8.138;2023-08-31T06:51:32;14.50;99.90
33994;DHT22;20673;48.980;8.138;2023-08-31T06:53:58;14.60;99.90
33994;DHT22;20673;48.980;8.138;2023-08-31T06:56:29;14.70;99.90
33994;DHT22;20673;48.980;8.138;2023-08-31T06:58:55;14.70;99.90
33994;DHT22;20673;48.980;8.138;2023-08-31T07:01:21;14.80;99.90
33994;DHT22;20673;48.980;8.138;2023-08-31T07:03:47;14.90;99.90
33994;DHT22;20673;48.980;8.138;2023-08-31T07:06:13;15.00;99.90
33994;DHT22;20673;48.980;8.138;2023-08-31T07:08:39;15.10;99.90
33994;DHT22;20673;48.980;8.138;2023-08-31T07:11:06;15.20;99.90
33994;DHT22;20673;48.980;8.138;2023-08-31T07:13:32;15.30;99.90
33994;DHT22;20673;48.980;8.138;2023-08-31T07:15:58;15.40;99.90
33994;DHT22;20673;48.980;8.138;2023-08-31T07:18:24;15.50;99.90
33994;DHT22;20673;48.980;8.138;2023-08-31T07:20:50;15.60;99.90
33994;DHT22;20673;48.980;8.138;2023-08-31T07:23:16;15.70;99.90
33994;DHT22;20673;48.980;8.138;2023-08-31T07:25:43;15.80;99.90
33994;DHT22;20673;48.980;8.138;2023-08-31T07:28:09;16.00;99.90
33994;DHT22;20673;48.980;8.138;2023-08-31T07:30:36;16.10;99.90
33994;DHT22;20673;48.980;8.138;2023-08-31T07:33:03;16.10;99.90
33994;DHT22;20673;48.980;8.138;2023-08-31T07:35:30;16.20;99.90
33994;DHT22;20673;48.980;8.138;2023-08-31T07:37:56;16.40;99.90
33994;DHT22;20673;48.980;8.138;2023-08-31T07:40:22;16.50;99.90
33994;DHT22;20673;48.980;8.138;2023-08-31T07:42:48;16.50;99.90
33994;DHT22;20673;48.980;8.138;2023-08-31T07:45:17;16.50;99.90
33994;DHT22;20673;48.980;8.138;2023-08-31T07:47:43;16.70;99.90
33994;DHT22;20673;48.980;8.138;2023-08-31T07:50:10;16.70;99.90
33994;DHT22;20673;48.980;8.138;2023-08-31T07:52:38;16.90;99.90
33994;DHT22;20673;48.980;8.138;2023-08-31T07:55:04;16.90;99.90
33994;DHT22;20673;48.980;8.138;2023-08-31T07:57:31;17.00;99.90
33994;DHT22;20673;48.980;8.138;2023-08-31T07:59:57;17.20;99.90
33994;DHT22;20673;48.980;8.138;2023-08-31T08:02:23;17.20;99.90
33994;DHT22;20673;48.980;8.138;2023-08-31T08:04:49;17.30;99.90
33994;DHT22;20673;48.980;8.138;2023-08-31T08:07:15;17.30;99.90
33994;DHT22;20673;48.980;8.138;2023-08-31T08:09:41;17.40;99.90
33994;DHT22;20673;48.980;8.138;2023-08-31T08:12:08;17.50;99.90
33994;DHT22;20673;48.980;8.138;2023-08-31T08:14:34;17.80;99.90
33994;DHT22;20673;48.980;8.138;2023-08-31T08:17:00;17.80;99.90
33994;DHT22;20673;48.980;8.138;2023-08-31T08:19:26;17.90;99.90
33994;DHT22;20673;48.980;8.138;2023-08-31T08:21:52;18.00;99.90
33994;DHT22;20673;48.980;8.138;2023-08-31T08:24:18;18.20;99.90
33994;DHT22;20673;48.980;8.138;2023-08-31T08:26:44;18.40;99.90
33994;DHT22;20673;48.980;8.138;2023-08-31T08:29:10;18.60;99.90
33994;DHT22;20673;48.980;8.138;2023-08-31T08:31:36;18.60;99.90
33994;DHT22;20673;48.980;8.138;2023-08-31T08:34:02;18.80;99.90
33994;DHT22;20673;48.980;8.138;2023-08-31T08:36:29;18.80;99.90
33994;DHT22;20673;48.980;8.138;2023-08-31T08:38:55;18.80;99.90
33994;DHT22;20673;48.980;8.138;2023-08-31T08:41:23;18.80;99.90
33994;DHT22;20673;48.980;8.138;2023-08-31T08:43:51;19.10;99.90
33994;DHT22;20673;48.980;8.138;2023-08-31T08:46:18;19.10;99.90
33994;DHT22;20673;48.980;8.138;2023-08-31T08:48:44;19.10;99.90
33994;DHT22;20673;48.980;8.138;2023-08-31T08:51:13;19.20;99.90
33994;DHT22;20673;48.980;8.138;2023-08-31T08:53:43;19.10;99.90
33994;DHT22;20673;48.980;8.138;2023-08-31T08:56:09;19.30;99.90
33994;DHT22;20673;48.980;8.138;2023-08-31T08:58:35;19.10;99.90
33994;DHT22;20673;48.980;8.138;2023-08-31T09:01:01;18.90;99.90
33994;DHT22;20673;48.980;8.138;2023-08-31T09:03:29;19.00;99.90
33994;DHT22;20673;48.980;8.138;2023-08-31T09:05:55;19.30;99.90
33994;DHT22;20673;48.980;8.138;2023-08-31T09:08:26;19.30;99.90
33994;DHT22;20673;48.980;8.138;2023-08-31T09:10:55;19.50;99.90
33994;DHT22;20673;48.980;8.138;2023-08-31T09:13:29;19.50;99.90
33994;DHT22;20673;48.980;8.138;2023-08-31T09:15:56;19.80;99.90
33994;DHT22;20673;48.980;8.138;2023-08-31T09:18:24;19.80;99.90
33994;DHT22;20673;48.980;8.138;2023-08-31T09:20:55;19.80;99.90
33994;DHT22;20673;48.980;8.138;2023-08-31T09:23:25;20.10;99.90
33994;DHT22;20673;48.980;8.138;2023-08-31T09:25:53;20.30;99.90
33994;DHT22;20673;48.980;8.138;2023-08-31T09:28:27;20.60;99.90
33994;DHT22;20673;48.980;8.138;2023-08-31T09:30:52;20.10;99.90
33994;DHT22;20673;48.980;8.138;2023-08-31T09:33:21;20.40;99.90
33994;DHT22;20673;48.980;8.138;2023-08-31T09:35:51;20.30;99.90
33994;DHT22;20673;48.980;8.138;2023-08-31T09:38:20;20.30;99.90
33994;DHT22;20673;48.980;8.138;2023-08-31T09:40:46;20.40;99.90
33994;DHT22;20673;48.980;8.138;2023-08-31T09:43:12;20.30;99.90
33994;DHT22;20673;48.980;8.138;2023-08-31T09:45:42;20.60;99.90
33994;DHT22;20673;48.980;8.138;2023-08-31T09:48:08;20.80;99.90
33994;DHT22;20673;48.980;8.138;2023-08-31T09:50:35;20.90;99.90
33994;DHT22;20673;48.980;8.138;2023-08-31T09:53:04;21.00;99.90
33994;DHT22;20673;48.980;8.138;2023-08-31T09:55:32;21.00;99.90
33994;DHT22;20673;48.980;8.138;2023-08-31T09:58:00;21.50;99.90
33994;DHT22;20673;48.980;8.138;2023-08-31T10:00:29;21.70;99.90
33994;DHT22;20673;48.980;8.138;2023-08-31T10:03:00;21.90;99.90
33994;DHT22;20673;48.980;8.138;2023-08-31T10:05:27;21.80;99.90
33994;DHT22;20673;48.980;8.138;2023-08-31T10:07:54;21.30;99.90
33994;DHT22;20673;48.980;8.138;2023-08-31T10:10:21;20.70;99.90
33994;DHT22;20673;48.980;8.138;2023-08-31T10:12:48;20.10;99.90
33994;DHT22;20673;48.980;8.138;2023-08-31T10:15:18;19.70;99.90
33994;DHT22;20673;48.980;8.138;2023-08-31T10:17:45;19.40;99.90
33994;DHT22;20673;48.980;8.138;2023-08-31T10:20:14;19.30;99.90
33994;DHT22;20673;48.980;8.138;2023-08-31T10:22:42;19.10;99.90
33994;DHT22;20673;48.980;8.138;2023-08-31T10:25:09;19.20;99.90
33994;DHT22;20673;48.980;8.138;2023-08-31T10:27:41;19.30;99.90
33994;DHT22;20673;48.980;8.138;2023-08-31T10:35:50;19.80;99.90
33994;DHT22;20673;48.980;8.138;2023-08-31T10:38:28;21.10;99.90
33994;DHT22;20673;48.980;8.138;2023-08-31T10:43:51;21.10;99.90
33994;DHT22;20673;48.980;8.138;2023-08-31T10:46:33;20.70;99.90
33994;DHT22;20673;48.980;8.138;2023-08-31T10:49:13;20.50;99.90
33994;DHT22;20673;48.980;8.138;2023-08-31T10:51:42;20.30;99.90
33994;DHT22;20673;48.980;8.138;2023-08-31T10:54:22;20.10;99.90
33994;DHT22;20673;48.980;8.138;2023-08-31T10:59:55;19.80;99.90
33994;DHT22;20673;48.980;8.138;2023-08-31T11:02:29;20.00;99.90
33994;DHT22;20673;48.980;8.138;2023-08-31T11:07:38;20.40;99.90
33994;DHT22;20673;48.980;8.138;2023-08-31T11:12:40;20.60;99.90
33994;DHT22;20673;48.980;8.138;2023-08-31T11:15:08;21.00;99.90
33994;DHT22;20673;48.980;8.138;2023-08-31T11:17:41;21.70;99.90
33994;DHT22;20673;48.980;8.138;2023-08-31T11:20:14;22.40;99.90
33994;DHT22;20673;48.980;8.138;2023-08-31T11:22:44;22.30;99.90
33994;DHT22;20673;48.980;8.138;2023-08-31T11:25:13;22.60;99.90
33994;DHT22;20673;48.980;8.138;2023-08-31T11:27:40;22.80;99.90
33994;DHT22;20673;48.980;8.138;2023-08-31T11:30:17;22.60;99.90
33994;DHT22;20673;48.980;8.138;2023-08-31T11:32:50;22.30;99.90
33994;DHT22;20673;48.980;8.138;2023-08-31T11:35:18;22.60;99.90
33994;DHT22;20673;48.980;8.138;2023-08-31T11:37:48;22.70;99.90
33994;DHT22;20673;48.980;8.138;2023-08-31T11:40:17;22.40;99.90
33994;DHT22;20673;48.980;8.138;2023-08-31T11:42:44;22.50;99.90
33994;DHT22;20673;48.980;8.138;2023-08-31T11:45:12;22.80;99.90
33994;DHT22;20673;48.980;8.138;2023-08-31T11:47:40;23.20;99.90
33994;DHT22;20673;48.980;8.138;2023-08-31T11:50:11;23.50;99.90
33994;DHT22;20673;48.980;8.138;2023-08-31T11:52:39;23.10;99.90
33994;DHT22;20673;48.980;8.138;2023-08-31T11:55:11;22.70;99.90
33994;DHT22;20673;48.980;8.138;2023-08-31T11:57:39;22.50;99.90
33994;DHT22;20673;48.980;8.138;2023-08-31T12:00:06;22.30;99.90
33994;DHT22;20673;48.980;8.138;2023-08-31T12:02:35;22.30;99.90
33994;DHT22;20673;48.980;8.138;2023-08-31T12:05:02;22.50;99.90
33994;DHT22;20673;48.980;8.138;2023-08-31T12:07:31;22.90;99.90
33994;DHT22;20673;48.980;8.138;2023-08-31T12:10:03;23.20;99.90
33994;DHT22;20673;48.980;8.138;2023-08-31T12:12:30;23.40;99.90
33994;DHT22;20673;48.980;8.138;2023-08-31T12:14:58;22.90;99.90
33994;DHT22;20673;48.980;8.138;2023-08-31T12:17:26;22.50;99.90
33994;DHT22;20673;48.980;8.138;2023-08-31T12:19:52;22.10;99.90
33994;DHT22;20673;48.980;8.138;2023-08-31T12:22:19;21.80;99.90
33994;DHT22;20673;48.980;8.138;2023-08-31T12:24:45;21.60;99.90
33994;DHT22;20673;48.980;8.138;2023-08-31T12:27:11;21.30;99.90
33994;DHT22;20673;48.980;8.138;2023-08-31T12:29:38;21.10;99.90
33994;DHT22;20673;48.980;8.138;2023-08-31T12:32:04;20.80;99.90
33994;DHT22;20673;48.980;8.138;2023-08-31T12:34:30;20.60;99.90
33994;DHT22;20673;48.980;8.138;2023-08-31T12:36:58;20.40;99.90
33994;DHT22;20673;48.980;8.138;2023-08-31T12:39:26;20.20;99.90
33994;DHT22;20673;48.980;8.138;2023-08-31T12:41:53;20.30;99.90
33994;DHT22;20673;48.980;8.138;2023-08-31T12:44:19;20.50;99.90
33994;DHT22;20673;48.980;8.138;2023-08-31T12:46:45;20.90;99.90
33994;DHT22;20673;48.980;8.138;2023-08-31T12:49:11;21.30;99.90
33994;DHT22;20673;48.980;8.138;2023-08-31T12:51:37;21.30;99.90
33994;DHT22;20673;48.980;8.138;2023-08-31T12:54:04;21.10;99.90
33994;DHT22;20673;48.980;8.138;2023-08-31T12:56:30;21.10;99.90
33994;DHT22;20673;48.980;8.138;2023-08-31T12:58:57;21.00;99.90
33994;DHT22;20673;48.980;8.138;2023-08-31T13:01:23;20.90;99.90
33994;DHT22;20673;48.980;8.138;2023-08-31T13:03:51;20.80;99.90
33994;DHT22;20673;48.980;8.138;2023-08-31T13:06:18;20.60;99.90
33994;DHT22;20673;48.980;8.138;2023-08-31T13:08:45;20.40;99.90
33994;DHT22;20673;48.980;8.138;2023-08-31T13:11:11;20.20;99.90
33994;DHT22;20673;48.980;8.138;2023-08-31T13:13:40;20.10;99.90
33994;DHT22;20673;48.980;8.138;2023-08-31T13:16:07;19.90;99.90
33994;DHT22;20673;48.980;8.138;2023-08-31T13:18:33;19.80;99.90
33994;DHT22;20673;48.980;8.138;2023-08-31T13:21:00;19.80;99.90
33994;DHT22;20673;48.980;8.138;2023-08-31T13:23:27;19.80;99.90
33994;DHT22;20673;48.980;8.138;2023-08-31T13:25:53;19.80;99.90
33994;DHT22;20673;48.980;8.138;2023-08-31T13:28:19;19.70;99.90
33994;DHT22;20673;48.980;8.138;2023-08-31T13:30:45;19.80;99.90
33994;DHT22;20673;48.980;8.138;2023-08-31T13:33:12;19.90;99.90
33994;DHT22;20673;48.980;8.138;2023-08-31T13:35:38;20.10;99.90
33994;DHT22;20673;48.980;8.138;2023-08-31T13:38:04;20.20;99.90
33994;DHT22;20673;48.980;8.138;2023-08-31T13:40:33;20.30;99.90
33994;DHT22;20673;48.980;8.138;2023-08-31T13:43:04;20.30;99.90
33994;DHT22;20673;48.980;8.138;2023-08-31T13:45:30;20.20;99.90
33994;DHT22;20673;48.980;8.138;2023-08-31T13:47:58;20.20;99.90
33994;DHT22;20673;48.980;8.138;2023-08-31T13:50:30;20.20;99.90
33994;DHT22;20673;48.980;8.138;2023-08-31T13:52:56;20.10;99.90
33994;DHT22;20673;48.980;8.138;2023-08-31T13:55:23;20.20;99.90
33994;DHT22;20673;48.980;8.138;2023-08-31T13:57:49;20.20;99.90
33994;DHT22;20673;48.980;8.138;2023-08-31T14:00:16;20.40;99.90
33994;DHT22;20673;48.980;8.138;2023-08-31T14:02:43;20.50;99.90
33994;DHT22;20673;48.980;8.138;2023-08-31T14:05:10;20.70;99.90
33994;DHT22;20673;48.980;8.138;2023-08-31T14:07:37;21.10;99.90
33994;DHT22;20673;48.980;8.138;2023-08-31T14:10:04;21.40;99.90
33994;DHT22;20673;48.980;8.138;2023-08-31T14:12:31;21.70;99.90
33994;DHT22;20673;48.980;8.138;2023-08-31T14:14:58;21.70;99.90
33994;DHT22;20673;48.980;8.138;2023-08-31T14:17:26;22.10;99.90
33994;DHT22;20673;48.980;8.138;2023-08-31T14:19:53;22.20;99.90
33994;DHT22;20673;48.980;8.138;2023-08-31T14:22:19;22.40;99.90
33994;DHT22;20673;48.980;8.138;2023-08-31T14:24:45;22.40;99.90
33994;DHT22;20673;48.980;8.138;2023-08-31T14:27:11;22.30;99.90
33994;DHT22;20673;48.980;8.138;2023-08-31T14:29:37;22.10;99.90
33994;DHT22;20673;48.980;8.138;2023-08-31T14:32:03;21.80;99.90
33994;DHT22;20673;48.980;8.138;2023-08-31T14:34:30;21.50;99.90
33994;DHT22;20673;48.980;8.138;2023-08-31T14:36:57;21.20;99.90
33994;DHT22;20673;48.980;8.138;2023-08-31T14:39:25;21.10;99.90
33994;DHT22;20673;48.980;8.138;2023-08-31T14:41:57;20.80;99.90
33994;DHT22;20673;48.980;8.138;2023-08-31T14:44:24;20.70;99.90
33994;DHT22;20673;48.980;8.138;2023-08-31T14:46:52;20.60;99.90
33994;DHT22;20673;48.980;8.138;2023-08-31T14:49:18;20.50;99.90
33994;DHT22;20673;48.980;8.138;2023-08-31T14:51:46;20.40;99.90
33994;DHT22;20673;48.980;8.138;2023-08-31T14:54:12;20.40;99.90
33994;DHT22;20673;48.980;8.138;2023-08-31T14:56:38;20.30;99.90
33994;DHT22;20673;48.980;8.138;2023-08-31T14:59:04;20.10;99.90
33994;DHT22;20673;48.980;8.138;2023-08-31T15:01:31;20.00;99.90
33994;DHT22;20673;48.980;8.138;2023-08-31T15:03:57;20.00;99.90
33994;DHT22;20673;48.980;8.138;2023-08-31T15:06:23;20.00;99.90
33994;DHT22;20673;48.980;8.138;2023-08-31T15:08:49;20.20;99.90
33994;DHT22;20673;48.980;8.138;2023-08-31T15:11:15;20.30;99.90
33994;DHT22;20673;48.980;8.138;2023-08-31T15:13:41;20.50;99.90
33994;DHT22;20673;48.980;8.138;2023-08-31T15:16:07;20.70;99.90
33994;DHT22;20673;48.980;8.138;2023-08-31T15:18:33;20.80;99.90
33994;DHT22;20673;48.980;8.138;2023-08-31T15:20:59;20.90;99.90
33994;DHT22;20673;48.980;8.138;2023-08-31T15:23:26;21.00;99.90
33994;DHT22;20673;48.980;8.138;2023-08-31T15:26:01;21.00;99.90
33994;DHT22;20673;48.980;8.138;2023-08-31T15:28:28;20.90;99.90
33994;DHT22;20673;48.980;8.138;2023-08-31T15:30:54;20.70;99.90
33994;DHT22;20673;48.980;8.138;2023-08-31T15:33:20;20.60;99.90
33994;DHT22;20673;48.980;8.138;2023-08-31T15:35:46;20.50;99.90
33994;DHT22;20673;48.980;8.138;2023-08-31T15:38:12;20.40;99.90
33994;DHT22;20673;48.980;8.138;2023-08-31T15:40:38;20.20;99.90
33994;DHT22;20673;48.980;8.138;2023-08-31T15:43:06;20.20;99.90
33994;DHT22;20673;48.980;8.138;2023-08-31T15:45:33;20.00;99.90
33994;DHT22;20673;48.980;8.138;2023-08-31T15:47:59;19.80;99.90
33994;DHT22;20673;48.980;8.138;2023-08-31T15:50:25;19.80;99.90
33994;DHT22;20673;48.980;8.138;2023-08-31T15:52:51;19.60;99.90
33994;DHT22;20673;48.980;8.138;2023-08-31T15:55:17;19.60;99.90